sensor_id;sensor_type;location;lat;lon;timestamp;pressure;altitude;pressure_sealevel;temperature;humidity
49645;BME280;36494;50.730;-1.932;2023-02-11T00:00:13;103171.15;;;8.56;100.00
49645;BME280;36494;50.730;-1.932;2023-02-11T00:02:38;103170.78;;;8.55;100.00
49645;BME280;36494;50.730;-1.932;2023-02-11T00:05:04;103170.85;;;8.56;100.00
49645;BME280;36494;50.730;-1.932;2023-02-11T00:07:29;103172.20;;;8.56;100.00
49645;BME280;36494;50.730;-1.932;2023-02-11T00:09:54;103175.05;;;8.57;100.00
49645;BME280;36494;50.730;-1.932;2023-02-11T00:12:19;103176.43;;;8.56;100.00
49645;BME280;36494;50.730;-1.932;2023-02-11T00:14:44;103174.42;;;8.56;100.00
49645;BME280;36494;50.730;-1.932;2023-02-11T00:17:10;103177.51;;;8.57;100.00
49645;BME280;36494;50.730;-1.932;2023-02-11T00:19:35;103177.14;;;8.55;100.00
49645;BME280;36494;50.730;-1.932;2023-02-11T00:22:00;103176.87;;;8.57;100.00
49645;BME280;36494;50.730;-1.932;2023-02-11T00:24:26;103172.59;;;8.52;100.00
49645;BME280;36494;50.730;-1.932;2023-02-11T00:26:51;103170.96;;;8.55;100.00
49645;BME280;36494;50.730;-1.932;2023-02-11T00:29:17;103169.24;;;8.55;100.00
49645;BME280;36494;50.730;-1.932;2023-02-11T00:31:42;103171.07;;;8.57;100.00
49645;BME280;36494;50.730;-1.932;2023-02-11T00:34:08;103172.55;;;8.58;100.00
49645;BME280;36494;50.730;-1.932;2023-02-11T00:36:33;103168.39;;;8.59;100.00
49645;BME280;36494;50.730;-1.932;2023-02-11T00:38:58;103165.51;;;8.56;100.00
49645;BME280;36494;50.730;-1.932;2023-02-11T00:41:24;103167.36;;;8.58;100.00
49645;BME280;36494;50.730;-1.932;2023-02-11T00:43:49;103163.80;;;8.58;100.00
49645;BME280;36494;50.730;-1.932;2023-02-11T00:46:15;103165.61;;;8.61;100.00
49645;BME280;36494;50.730;-1.932;2023-02-11T00:48:39;103163.16;;;8.58;100.00
49645;BME280;36494;50.730;-1.932;2023-02-11T00:51:05;103166.60;;;8.59;100.00
49645;BME280;36494;50.730;-1.932;2023-02-11T00:53:31;103166.27;;;8.60;100.00
49645;BME280;36494;50.730;-1.932;2023-02-11T00:55:56;103166.00;;;8.60;100.00
49645;BME280;36494;50.730;-1.932;2023-02-11T00:58:21;103168.71;;;8.61;100.00
49645;BME280;36494;50.730;-1.932;2023-02-11T01:00:47;103171.42;;;8.62;100.00
49645;BME280;36494;50.730;-1.932;2023-02-11T01:03:12;103177.90;;;8.64;100.00
49645;BME280;36494;50.730;-1.932;2023-02-11T01:05:37;103179.40;;;8.61;100.00
49645;BME280;36494;50.730;-1.932;2023-02-11T01:08:03;103177.94;;;8.64;100.00
49645;BME280;36494;50.730;-1.932;2023-02-11T01:10:28;103178.11;;;8.66;100.00
49645;BME280;36494;50.730;-1.932;2023-02-11T01:12:54;103180.10;;;8.64;100.00
49645;BME280;36494;50.730;-1.932;2023-02-11T01:15:20;103177.64;;;8.63;100.00
49645;BME280;36494;50.730;-1.932;2023-02-11T01:17:44;103176.62;;;8.65;100.00
49645;BME280;36494;50.730;-1.932;2023-02-11T01:20:14;103179.49;;;8.68;100.00
49645;BME280;36494;50.730;-1.932;2023-02-11T01:22:34;103175.41;;;8.65;100.00
49645;BME280;36494;50.730;-1.932;2023-02-11T01:24:59;103171.04;;;8.67;100.00
49645;BME280;36494;50.730;-1.932;2023-02-11T01:27:24;103164.77;;;8.67;100.00
49645;BME280;36494;50.730;-1.932;2023-02-11T01:29:50;103163.70;;;8.67;100.00
49645;BME280;36494;50.730;-1.932;2023-02-11T01:32:15;103163.43;;;8.66;100.00
49645;BME280;36494;50.730;-1.932;2023-02-11T01:34:40;103168.20;;;8.67;100.00
49645;BME280;36494;50.730;-1.932;2023-02-11T01:37:05;103172.67;;;8.65;100.00
49645;BME280;36494;50.730;-1.932;2023-02-11T01:39:32;103171.02;;;8.67;100.00
49645;BME280;36494;50.730;-1.932;2023-02-11T01:41:56;103174.74;;;8.69;100.00
49645;BME280;36494;50.730;-1.932;2023-02-11T01:44:24;103178.05;;;8.69;100.00
49645;BME280;36494;50.730;-1.932;2023-02-11T01:46:46;103174.63;;;8.68;100.00
49645;BME280;36494;50.730;-1.932;2023-02-11T01:49:15;103170.92;;;8.70;100.00
49645;BME280;36494;50.730;-1.932;2023-02-11T01:51:40;103168.26;;;8.70;100.00
49645;BME280;36494;50.730;-1.932;2023-02-11T01:54:04;103165.86;;;8.68;100.00
49645;BME280;36494;50.730;-1.932;2023-02-11T01:56:29;103164.42;;;8.71;100.00
49645;BME280;36494;50.730;-1.932;2023-02-11T01:58:57;103157.04;;;8.68;100.00
49645;BME280;36494;50.730;-1.932;2023-02-11T02:01:22;103154.42;;;8.68;100.00
49645;BME280;36494;50.730;-1.932;2023-02-11T02:03:45;103150.35;;;8.67;100.00
49645;BME280;36494;50.730;-1.932;2023-02-11T02:06:13;103149.06;;;8.68;100.00
49645;BME280;36494;50.730;-1.932;2023-02-11T02:08:38;103141.57;;;8.69;100.00
49645;BME280;36494;50.730;-1.932;2023-02-11T02:10:59;103142.05;;;8.64;100.00
49645;BME280;36494;50.730;-1.932;2023-02-11T02:13:25;103143.80;;;8.65;100.00
49645;BME280;36494;50.730;-1.932;2023-02-11T02:15:52;103144.40;;;8.68;100.00
49645;BME280;36494;50.730;-1.932;2023-02-11T02:18:25;103147.67;;;8.70;100.00
49645;BME280;36494;50.730;-1.932;2023-02-11T02:23:19;103143.41;;;8.71;100.00
49645;BME280;36494;50.730;-1.932;2023-02-11T02:25:54;103142.70;;;8.71;100.00
49645;BME280;36494;50.730;-1.932;2023-02-11T02:28:07;103141.43;;;8.72;100.00
49645;BME280;36494;50.730;-1.932;2023-02-11T02:30:38;103143.85;;;8.72;100.00
49645;BME280;36494;50.730;-1.932;2023-02-11T02:32:54;103144.16;;;8.71;100.00
49645;BME280;36494;50.730;-1.932;2023-02-11T02:35:23;103140.57;;;8.72;100.00
49645;BME280;36494;50.730;-1.932;2023-02-11T02:37:44;103135.68;;;8.70;100.00
49645;BME280;36494;50.730;-1.932;2023-02-11T02:40:10;103130.15;;;8.68;100.00
49645;BME280;36494;50.730;-1.932;2023-02-11T02:42:30;103129.41;;;8.67;100.00
49645;BME280;36494;50.730;-1.932;2023-02-11T02:44:55;103130.42;;;8.66;100.00
49645;BME280;36494;50.730;-1.932;2023-02-11T02:47:20;103132.36;;;8.66;100.00
49645;BME280;36494;50.730;-1.932;2023-02-11T02:49:45;103133.37;;;8.67;100.00
49645;BME280;36494;50.730;-1.932;2023-02-11T02:52:18;103132.48;;;8.67;100.00
49645;BME280;36494;50.730;-1.932;2023-02-11T02:54:52;103125.75;;;8.65;100.00
49645;BME280;36494;50.730;-1.932;2023-02-11T02:57:09;103123.04;;;8.65;100.00
49645;BME280;36494;50.730;-1.932;2023-02-11T02:59:36;103118.70;;;8.65;100.00
49645;BME280;36494;50.730;-1.932;2023-02-11T03:01:58;103113.35;;;8.63;100.00
49645;BME280;36494;50.730;-1.932;2023-02-11T03:04:21;103107.72;;;8.63;100.00
49645;BME280;36494;50.730;-1.932;2023-02-11T03:06:47;103104.44;;;8.64;100.00
49645;BME280;36494;50.730;-1.932;2023-02-11T03:09:13;103103.04;;;8.61;100.00
49645;BME280;36494;50.730;-1.932;2023-02-11T03:11:35;103101.24;;;8.63;100.00
49645;BME280;36494;50.730;-1.932;2023-02-11T03:14:00;103104.47;;;8.62;100.00
49645;BME280;36494;50.730;-1.932;2023-02-11T03:16:25;103104.70;;;8.61;100.00
49645;BME280;36494;50.730;-1.932;2023-02-11T03:18:53;103105.37;;;8.62;100.00
49645;BME280;36494;50.730;-1.932;2023-02-11T03:21:16;103100.41;;;8.63;100.00
49645;BME280;36494;50.730;-1.932;2023-02-11T03:23:45;103097.25;;;8.62;100.00
49645;BME280;36494;50.730;-1.932;2023-02-11T03:26:10;103099.99;;;8.62;100.00
49645;BME280;36494;50.730;-1.932;2023-02-11T03:28:33;103095.13;;;8.61;100.00
49645;BME280;36494;50.730;-1.932;2023-02-11T03:31:01;103095.01;;;8.60;100.00
49645;BME280;36494;50.730;-1.932;2023-02-11T03:33:25;103092.07;;;8.65;100.00
49645;BME280;36494;50.730;-1.932;2023-02-11T03:35:52;103093.75;;;8.66;100.00
49645;BME280;36494;50.730;-1.932;2023-02-11T03:38:16;103092.54;;;8.64;100.00
49645;BME280;36494;50.730;-1.932;2023-02-11T03:40:39;103099.20;;;8.64;100.00
49645;BME280;36494;50.730;-1.932;2023-02-11T03:43:06;103102.33;;;8.63;100.00
49645;BME280;36494;50.730;-1.932;2023-02-11T03:45:29;103100.41;;;8.64;100.00
49645;BME280;36494;50.730;-1.932;2023-02-11T03:47:58;103099.05;;;8.63;100.00
49645;BME280;36494;50.730;-1.932;2023-02-11T03:50:20;103098.24;;;8.64;100.00
49645;BME280;36494;50.730;-1.932;2023-02-11T03:52:45;103097.85;;;8.63;100.00
49645;BME280;36494;50.730;-1.932;2023-02-11T03:55:12;103095.71;;;8.65;100.00
49645;BME280;36494;50.730;-1.932;2023-02-11T03:57:35;103096.85;;;8.64;100.00
49645;BME280;36494;50.730;-1.932;2023-02-11T04:00:00;103093.54;;;8.65;100.00
49645;BME280;36494;50.730;-1.932;2023-02-11T04:02:28;103093.11;;;8.66;100.00
49645;BME280;36494;50.730;-1.932;2023-02-11T04:04:51;103097.92;;;8.64;100.00
49645;BME280;36494;50.730;-1.932;2023-02-11T04:07:16;103096.32;;;8.65;100.00
49645;BME280;36494;50.730;-1.932;2023-02-11T04:09:41;103100.55;;;8.61;100.00
49645;BME280;36494;50.730;-1.932;2023-02-11T04:12:07;103099.65;;;8.63;100.00
49645;BME280;36494;50.730;-1.932;2023-02-11T04:14:32;103098.73;;;8.65;100.00
49645;BME280;36494;50.730;-1.932;2023-02-11T04:16:57;103092.44;;;8.68;100.00
49645;BME280;36494;50.730;-1.932;2023-02-11T04:19:23;103093.19;;;8.67;100.00
49645;BME280;36494;50.730;-1.932;2023-02-11T04:21:49;103096.08;;;8.68;100.00
49645;BME280;36494;50.730;-1.932;2023-02-11T04:24:14;103100.91;;;8.65;100.00
49645;BME280;36494;50.730;-1.932;2023-02-11T04:26:39;103103.90;;;8.67;100.00
49645;BME280;36494;50.730;-1.932;2023-02-11T04:29:04;103107.57;;;8.66;100.00
49645;BME280;36494;50.730;-1.932;2023-02-11T04:31:30;103104.27;;;8.67;100.00
49645;BME280;36494;50.730;-1.932;2023-02-11T04:33:55;103097.90;;;8.63;100.00
49645;BME280;36494;50.730;-1.932;2023-02-11T04:36:21;103097.01;;;8.67;100.00
49645;BME280;36494;50.730;-1.932;2023-02-11T04:38:46;103102.97;;;8.67;100.00
49645;BME280;36494;50.730;-1.932;2023-02-11T04:41:11;103107.37;;;8.66;100.00
49645;BME280;36494;50.730;-1.932;2023-02-11T04:43:36;103112.13;;;8.68;100.00
49645;BME280;36494;50.730;-1.932;2023-02-11T04:46:02;103111.20;;;8.65;100.00
49645;BME280;36494;50.730;-1.932;2023-02-11T04:48:27;103109.19;;;8.68;100.00
49645;BME280;36494;50.730;-1.932;2023-02-11T04:50:52;103107.26;;;8.68;100.00
49645;BME280;36494;50.730;-1.932;2023-02-11T04:53:18;103110.15;;;8.70;100.00
49645;BME280;36494;50.730;-1.932;2023-02-11T04:55:43;103114.08;;;8.71;100.00
49645;BME280;36494;50.730;-1.932;2023-02-11T04:58:09;103114.30;;;8.72;100.00
49645;BME280;36494;50.730;-1.932;2023-02-11T05:00:34;103120.00;;;8.71;100.00
49645;BME280;36494;50.730;-1.932;2023-02-11T05:02:59;103121.64;;;8.72;100.00
49645;BME280;36494;50.730;-1.932;2023-02-11T05:05:25;103127.79;;;8.70;100.00
49645;BME280;36494;50.730;-1.932;2023-02-11T05:07:50;103134.91;;;8.70;100.00
49645;BME280;36494;50.730;-1.932;2023-02-11T05:10:15;103135.13;;;8.71;100.00
49645;BME280;36494;50.730;-1.932;2023-02-11T05:12:41;103134.19;;;8.77;100.00
49645;BME280;36494;50.730;-1.932;2023-02-11T05:15:06;103129.19;;;8.74;100.00
49645;BME280;36494;50.730;-1.932;2023-02-11T05:17:31;103125.23;;;8.75;100.00
49645;BME280;36494;50.730;-1.932;2023-02-11T05:19:57;103121.19;;;8.75;100.00
49645;BME280;36494;50.730;-1.932;2023-02-11T05:22:22;103118.74;;;8.76;100.00
49645;BME280;36494;50.730;-1.932;2023-02-11T05:24:47;103117.40;;;8.75;100.00
49645;BME280;36494;50.730;-1.932;2023-02-11T05:27:13;103121.46;;;8.74;100.00
49645;BME280;36494;50.730;-1.932;2023-02-11T05:29:38;103125.05;;;8.74;100.00
49645;BME280;36494;50.730;-1.932;2023-02-11T05:32:03;103127.26;;;8.74;100.00
49645;BME280;36494;50.730;-1.932;2023-02-11T05:34:29;103125.45;;;8.74;100.00
49645;BME280;36494;50.730;-1.932;2023-02-11T05:36:54;103123.78;;;8.75;100.00
49645;BME280;36494;50.730;-1.932;2023-02-11T05:39:20;103122.66;;;8.80;100.00
49645;BME280;36494;50.730;-1.932;2023-02-11T05:41:45;103125.23;;;8.77;100.00
49645;BME280;36494;50.730;-1.932;2023-02-11T05:44:10;103125.62;;;8.77;100.00
49645;BME280;36494;50.730;-1.932;2023-02-11T05:46:36;103122.18;;;8.77;100.00
49645;BME280;36494;50.730;-1.932;2023-02-11T05:49:01;103123.65;;;8.75;100.00
49645;BME280;36494;50.730;-1.932;2023-02-11T05:51:26;103128.84;;;8.76;100.00
49645;BME280;36494;50.730;-1.932;2023-02-11T05:53:52;103128.71;;;8.75;100.00
49645;BME280;36494;50.730;-1.932;2023-02-11T05:56:17;103126.78;;;8.77;100.00
49645;BME280;36494;50.730;-1.932;2023-02-11T05:58:42;103125.87;;;8.75;100.00
49645;BME280;36494;50.730;-1.932;2023-02-11T06:01:08;103129.48;;;8.79;100.00
49645;BME280;36494;50.730;-1.932;2023-02-11T06:03:33;103127.44;;;8.78;100.00
49645;BME280;36494;50.730;-1.932;2023-02-11T06:05:58;103130.46;;;8.79;100.00
49645;BME280;36494;50.730;-1.932;2023-02-11T06:08:24;103132.76;;;8.81;100.00
49645;BME280;36494;50.730;-1.932;2023-02-11T06:10:49;103132.57;;;8.81;100.00
49645;BME280;36494;50.730;-1.932;2023-02-11T06:13:15;103131.54;;;8.79;100.00
49645;BME280;36494;50.730;-1.932;2023-02-11T06:15:40;103132.16;;;8.80;100.00
49645;BME280;36494;50.730;-1.932;2023-02-11T06:18:06;103130.53;;;8.82;100.00
49645;BME280;36494;50.730;-1.932;2023-02-11T06:20:31;103126.96;;;8.81;100.00
49645;BME280;36494;50.730;-1.932;2023-02-11T06:22:56;103132.92;;;8.81;100.00
49645;BME280;36494;50.730;-1.932;2023-02-11T06:25:21;103140.27;;;8.79;100.00
49645;BME280;36494;50.730;-1.932;2023-02-11T06:27:47;103146.31;;;8.78;100.00
49645;BME280;36494;50.730;-1.932;2023-02-11T06:30:13;103147.91;;;8.78;100.00
49645;BME280;36494;50.730;-1.932;2023-02-11T06:32:37;103146.55;;;8.76;100.00
49645;BME280;36494;50.730;-1.932;2023-02-11T06:35:03;103143.30;;;8.76;100.00
49645;BME280;36494;50.730;-1.932;2023-02-11T06:37:28;103141.66;;;8.75;100.00
49645;BME280;36494;50.730;-1.932;2023-02-11T06:39:53;103145.22;;;8.74;100.00
49645;BME280;36494;50.730;-1.932;2023-02-11T06:42:19;103149.72;;;8.71;100.00
49645;BME280;36494;50.730;-1.932;2023-02-11T06:44:44;103151.39;;;8.70;100.00
49645;BME280;36494;50.730;-1.932;2023-02-11T06:47:10;103148.61;;;8.66;100.00
49645;BME280;36494;50.730;-1.932;2023-02-11T06:49:35;103144.51;;;8.67;100.00
49645;BME280;36494;50.730;-1.932;2023-02-11T06:52:00;103145.43;;;8.69;100.00
49645;BME280;36494;50.730;-1.932;2023-02-11T06:54:25;103144.44;;;8.68;100.00
49645;BME280;36494;50.730;-1.932;2023-02-11T06:56:51;103147.49;;;8.67;100.00
49645;BME280;36494;50.730;-1.932;2023-02-11T06:59:17;103150.57;;;8.63;100.00
49645;BME280;36494;50.730;-1.932;2023-02-11T07:01:42;103150.66;;;8.65;100.00
49645;BME280;36494;50.730;-1.932;2023-02-11T07:04:07;103150.90;;;8.61;100.00
49645;BME280;36494;50.730;-1.932;2023-02-11T07:06:32;103145.86;;;8.65;100.00
49645;BME280;36494;50.730;-1.932;2023-02-11T07:08:58;103146.59;;;8.64;100.00
49645;BME280;36494;50.730;-1.932;2023-02-11T07:11:25;103146.24;;;8.63;100.00
49645;BME280;36494;50.730;-1.932;2023-02-11T07:13:50;103153.60;;;8.64;100.00
49645;BME280;36494;50.730;-1.932;2023-02-11T07:16:15;103153.09;;;8.63;100.00
49645;BME280;36494;50.730;-1.932;2023-02-11T07:18:40;103158.37;;;8.61;100.00
49645;BME280;36494;50.730;-1.932;2023-02-11T07:21:05;103160.28;;;8.61;100.00
49645;BME280;36494;50.730;-1.932;2023-02-11T07:23:30;103161.95;;;8.61;100.00
49645;BME280;36494;50.730;-1.932;2023-02-11T07:25:55;103162.24;;;8.64;100.00
49645;BME280;36494;50.730;-1.932;2023-02-11T07:28:20;103160.96;;;8.64;100.00
49645;BME280;36494;50.730;-1.932;2023-02-11T07:30:46;103164.78;;;8.65;100.00
49645;BME280;36494;50.730;-1.932;2023-02-11T07:33:11;103166.11;;;8.64;100.00
49645;BME280;36494;50.730;-1.932;2023-02-11T07:35:36;103165.57;;;8.61;100.00
49645;BME280;36494;50.730;-1.932;2023-02-11T07:38:03;103166.89;;;8.60;100.00
49645;BME280;36494;50.730;-1.932;2023-02-11T07:40:27;103165.83;;;8.61;100.00
49645;BME280;36494;50.730;-1.932;2023-02-11T07:42:52;103161.42;;;8.62;100.00
49645;BME280;36494;50.730;-1.932;2023-02-11T07:45:18;103162.17;;;8.62;100.00
49645;BME280;36494;50.730;-1.932;2023-02-11T07:47:43;103158.93;;;8.65;100.00
49645;BME280;36494;50.730;-1.932;2023-02-11T07:50:09;103152.49;;;8.65;100.00
49645;BME280;36494;50.730;-1.932;2023-02-11T07:52:34;103155.65;;;8.64;100.00
49645;BME280;36494;50.730;-1.932;2023-02-11T07:54:59;103157.91;;;8.66;100.00
49645;BME280;36494;50.730;-1.932;2023-02-11T07:57:24;103158.62;;;8.66;100.00
49645;BME280;36494;50.730;-1.932;2023-02-11T07:59:50;103164.17;;;8.67;100.00
49645;BME280;36494;50.730;-1.932;2023-02-11T08:02:15;103167.12;;;8.66;100.00
49645;BME280;36494;50.730;-1.932;2023-02-11T08:04:41;103164.97;;;8.69;100.00
49645;BME280;36494;50.730;-1.932;2023-02-11T08:07:06;103167.34;;;8.72;100.00
49645;BME280;36494;50.730;-1.932;2023-02-11T08:09:32;103171.44;;;8.75;100.00
49645;BME280;36494;50.730;-1.932;2023-02-11T08:11:57;103177.03;;;8.74;100.00
49645;BME280;36494;50.730;-1.932;2023-02-11T08:14:22;103185.50;;;8.77;100.00
49645;BME280;36494;50.730;-1.932;2023-02-11T08:16:47;103191.13;;;8.77;100.00
49645;BME280;36494;50.730;-1.932;2023-02-11T08:19:14;103190.41;;;8.79;100.00
49645;BME280;36494;50.730;-1.932;2023-02-11T08:21:38;103188.89;;;8.80;100.00
49645;BME280;36494;50.730;-1.932;2023-02-11T08:24:04;103190.19;;;8.82;100.00
49645;BME280;36494;50.730;-1.932;2023-02-11T08:26:30;103187.66;;;8.82;100.00
49645;BME280;36494;50.730;-1.932;2023-02-11T08:28:56;103185.98;;;8.85;100.00
49645;BME280;36494;50.730;-1.932;2023-02-11T08:31:22;103185.03;;;8.87;100.00
49645;BME280;36494;50.730;-1.932;2023-02-11T08:33:45;103186.19;;;8.87;100.00
49645;BME280;36494;50.730;-1.932;2023-02-11T08:36:12;103185.49;;;8.89;100.00
49645;BME280;36494;50.730;-1.932;2023-02-11T08:38:36;103190.60;;;8.86;100.00
49645;BME280;36494;50.730;-1.932;2023-02-11T08:41:00;103193.21;;;8.86;100.00
49645;BME280;36494;50.730;-1.932;2023-02-11T08:43:26;103191.80;;;8.89;100.00
49645;BME280;36494;50.730;-1.932;2023-02-11T08:45:51;103189.13;;;8.88;100.00
49645;BME280;36494;50.730;-1.932;2023-02-11T08:48:17;103188.10;;;8.90;100.00
49645;BME280;36494;50.730;-1.932;2023-02-11T08:50:42;103192.44;;;8.89;100.00
49645;BME280;36494;50.730;-1.932;2023-02-11T08:53:08;103194.87;;;8.92;100.00
49645;BME280;36494;50.730;-1.932;2023-02-11T08:55:33;103197.06;;;8.94;100.00
49645;BME280;36494;50.730;-1.932;2023-02-11T08:57:58;103199.17;;;8.94;100.00
49645;BME280;36494;50.730;-1.932;2023-02-11T09:00:24;103198.23;;;8.95;100.00
49645;BME280;36494;50.730;-1.932;2023-02-11T09:02:49;103202.29;;;8.96;100.00
49645;BME280;36494;50.730;-1.932;2023-02-11T09:05:14;103202.14;;;8.97;100.00
49645;BME280;36494;50.730;-1.932;2023-02-11T09:07:39;103200.70;;;9.00;100.00
49645;BME280;36494;50.730;-1.932;2023-02-11T09:10:05;103198.16;;;9.00;100.00
49645;BME280;36494;50.730;-1.932;2023-02-11T09:12:30;103198.27;;;9.01;100.00
49645;BME280;36494;50.730;-1.932;2023-02-11T09:14:56;103194.66;;;9.03;100.00
49645;BME280;36494;50.730;-1.932;2023-02-11T09:17:21;103188.84;;;9.06;100.00
49645;BME280;36494;50.730;-1.932;2023-02-11T09:19:46;103183.70;;;9.09;100.00
49645;BME280;36494;50.730;-1.932;2023-02-11T09:22:11;103177.63;;;9.10;100.00
49645;BME280;36494;50.730;-1.932;2023-02-11T09:24:36;103177.91;;;9.13;100.00
49645;BME280;36494;50.730;-1.932;2023-02-11T09:27:02;103180.16;;;9.18;100.00
49645;BME280;36494;50.730;-1.932;2023-02-11T09:29:27;103187.66;;;9.19;100.00
49645;BME280;36494;50.730;-1.932;2023-02-11T09:31:52;103189.01;;;9.17;100.00
49645;BME280;36494;50.730;-1.932;2023-02-11T09:34:17;103186.47;;;9.23;100.00
49645;BME280;36494;50.730;-1.932;2023-02-11T09:36:43;103185.35;;;9.22;100.00
49645;BME280;36494;50.730;-1.932;2023-02-11T09:39:11;103187.97;;;9.28;100.00
49645;BME280;36494;50.730;-1.932;2023-02-11T09:41:40;103186.65;;;9.29;100.00
49645;BME280;36494;50.730;-1.932;2023-02-11T09:44:01;103184.48;;;9.25;100.00
49645;BME280;36494;50.730;-1.932;2023-02-11T09:46:26;103187.61;;;9.32;100.00
49645;BME280;36494;50.730;-1.932;2023-02-11T09:48:52;103187.78;;;9.33;100.00
49645;BME280;36494;50.730;-1.932;2023-02-11T09:51:18;103188.80;;;9.38;100.00
49645;BME280;36494;50.730;-1.932;2023-02-11T09:53:41;103187.25;;;9.43;100.00
49645;BME280;36494;50.730;-1.932;2023-02-11T09:56:10;103184.14;;;9.44;100.00
49645;BME280;36494;50.730;-1.932;2023-02-11T09:58:33;103186.18;;;9.46;100.00
49645;BME280;36494;50.730;-1.932;2023-02-11T10:01:01;103183.55;;;9.53;100.00
49645;BME280;36494;50.730;-1.932;2023-02-11T10:03:37;103182.78;;;9.61;100.00
49645;BME280;36494;50.730;-1.932;2023-02-11T10:06:00;103184.92;;;9.63;100.00
49645;BME280;36494;50.730;-1.932;2023-02-11T10:08:15;103189.14;;;9.65;100.00
49645;BME280;36494;50.730;-1.932;2023-02-11T10:10:44;103199.82;;;9.69;100.00
49645;BME280;36494;50.730;-1.932;2023-02-11T10:13:16;103203.89;;;9.66;100.00
49645;BME280;36494;50.730;-1.932;2023-02-11T10:15:37;103204.56;;;9.75;100.00
49645;BME280;36494;50.730;-1.932;2023-02-11T10:18:07;103203.29;;;9.80;100.00
49645;BME280;36494;50.730;-1.932;2023-02-11T10:20:24;103205.84;;;9.82;100.00
49645;BME280;36494;50.730;-1.932;2023-02-11T10:22:46;103208.72;;;9.87;100.00
49645;BME280;36494;50.730;-1.932;2023-02-11T12:57:49;103138.00;;;12.55;100.00
49645;BME280;36494;50.730;-1.932;2023-02-11T13:00:14;103139.04;;;12.42;100.00
49645;BME280;36494;50.730;-1.932;2023-02-11T13:02:41;103134.91;;;12.12;100.00
49645;BME280;36494;50.730;-1.932;2023-02-11T13:05:18;103132.52;;;12.17;100.00
49645;BME280;36494;50.730;-1.932;2023-02-11T13:07:33;103129.75;;;12.23;100.00
49645;BME280;36494;50.730;-1.932;2023-02-11T13:09:59;103131.21;;;12.19;100.00
49645;BME280;36494;50.730;-1.932;2023-02-11T13:12:20;103132.84;;;11.96;100.00
49645;BME280;36494;50.730;-1.932;2023-02-11T13:14:46;103135.65;;;12.02;100.00
49645;BME280;36494;50.730;-1.932;2023-02-11T13:17:15;103135.13;;;12.08;100.00
49645;BME280;36494;50.730;-1.932;2023-02-11T13:19:39;103131.18;;;12.02;100.00
49645;BME280;36494;50.730;-1.932;2023-02-11T13:22:05;103128.60;;;11.92;100.00
49645;BME280;36494;50.730;-1.932;2023-02-11T13:24:33;103125.24;;;11.89;100.00
49645;BME280;36494;50.730;-1.932;2023-02-11T13:26:58;103126.09;;;11.90;100.00
49645;BME280;36494;50.730;-1.932;2023-02-11T13:29:27;103129.18;;;11.98;100.00
49645;BME280;36494;50.730;-1.932;2023-02-11T13:31:52;103127.86;;;12.04;100.00
49645;BME280;36494;50.730;-1.932;2023-02-11T13:36:34;103126.99;;;12.14;100.00
49645;BME280;36494;50.730;-1.932;2023-02-11T13:39:02;103126.45;;;12.11;100.00
49645;BME280;36494;50.730;-1.932;2023-02-11T13:41:28;103123.79;;;12.13;100.00
49645;BME280;36494;50.730;-1.932;2023-02-11T13:43:59;103123.40;;;12.12;100.00
49645;BME280;36494;50.730;-1.932;2023-02-11T13:46:16;103121.70;;;11.93;100.00
49645;BME280;36494;50.730;-1.932;2023-02-11T13:48:45;103118.54;;;11.87;100.00
49645;BME280;36494;50.730;-1.932;2023-02-11T13:51:10;103113.58;;;11.92;100.00
49645;BME280;36494;50.730;-1.932;2023-02-11T13:53:43;103109.68;;;11.96;100.00
49645;BME280;36494;50.730;-1.932;2023-02-11T13:56:04;103109.40;;;12.01;100.00
49645;BME280;36494;50.730;-1.932;2023-02-11T13:58:33;103107.70;;;11.99;100.00
49645;BME280;36494;50.730;-1.932;2023-02-11T14:00:49;103103.08;;;11.87;100.00
49645;BME280;36494;50.730;-1.932;2023-02-11T14:03:24;103103.46;;;11.90;100.00
49645;BME280;36494;50.730;-1.932;2023-02-11T14:08:12;103104.56;;;11.98;100.00
49645;BME280;36494;50.730;-1.932;2023-02-11T14:13:05;103101.89;;;11.86;100.00
49645;BME280;36494;50.730;-1.932;2023-02-11T14:15:25;103097.49;;;11.71;100.00
49645;BME280;36494;50.730;-1.932;2023-02-11T14:17:45;103092.85;;;11.83;100.00
49645;BME280;36494;50.730;-1.932;2023-02-11T14:22:41;103092.03;;;11.78;100.00
49645;BME280;36494;50.730;-1.932;2023-02-11T14:25:03;103090.06;;;11.60;100.00
49645;BME280;36494;50.730;-1.932;2023-02-11T14:27:29;103088.32;;;11.62;100.00
49645;BME280;36494;50.730;-1.932;2023-02-11T14:30:08;103090.39;;;11.70;100.00
49645;BME280;36494;50.730;-1.932;2023-02-11T14:32:28;103085.17;;;11.68;100.00
49645;BME280;36494;50.730;-1.932;2023-02-11T14:34:50;103083.97;;;11.81;100.00
49645;BME280;36494;50.730;-1.932;2023-02-11T14:37:13;103086.84;;;11.80;100.00
49645;BME280;36494;50.730;-1.932;2023-02-11T14:39:48;103089.29;;;11.80;100.00
49645;BME280;36494;50.730;-1.932;2023-02-11T14:42:00;103091.51;;;11.81;100.00
49645;BME280;36494;50.730;-1.932;2023-02-11T14:44:26;103092.65;;;11.76;100.00
49645;BME280;36494;50.730;-1.932;2023-02-11T14:46:50;103093.67;;;11.73;100.00
49645;BME280;36494;50.730;-1.932;2023-02-11T14:49:25;103093.51;;;11.73;100.00
49645;BME280;36494;50.730;-1.932;2023-02-11T14:51:40;103091.22;;;11.61;100.00
49645;BME280;36494;50.730;-1.932;2023-02-11T14:54:11;103087.83;;;11.62;100.00
49645;BME280;36494;50.730;-1.932;2023-02-11T14:56:30;103090.80;;;11.61;100.00
49645;BME280;36494;50.730;-1.932;2023-02-11T14:58:56;103096.21;;;11.65;100.00
49645;BME280;36494;50.730;-1.932;2023-02-11T15:01:25;103104.78;;;11.64;100.00
49645;BME280;36494;50.730;-1.932;2023-02-11T15:03:48;103101.31;;;11.64;100.00
49645;BME280;36494;50.730;-1.932;2023-02-11T15:06:16;103094.18;;;11.61;100.00
49645;BME280;36494;50.730;-1.932;2023-02-11T15:08:42;103092.54;;;11.59;100.00
49645;BME280;36494;50.730;-1.932;2023-02-11T15:11:08;103095.74;;;11.62;100.00